Time;durP1;ratioP1;P1;durP2;ratioP2;P2;SDS_P1;SDS_P2;PMS_P1;PMS_P2;Temp;Humidity;BMP_temperature;BMP_pressure;BME280_temperature;BME280_humidity;BME280_pressure;Samples;Min_cycle;Max_cycle;Signal;HPM_P1;HPM_P2
2023/12/05 00:01:41;;;;;;;28.10;15.90;;;-0.40;99.90;;;;;;5055062;28;20044;-46
2023/12/05 00:04:06;;;;;;;27.10;16.50;;;-0.50;99.90;;;;;;5055237;28;20041;-45
2023/12/05 00:06:32;;;;;;;27.60;15.77;;;0.10;99.90;;;;;;5054887;28;20091;-46
2023/12/05 00:08:58;;;;;;;29.30;16.37;;;-0.60;99.90;;;;;;5037805;28;20056;-46
2023/12/05 00:11:25;;;;;;;30.13;17.00;;;-0.50;99.90;;;;;;5055578;28;20095;-46
2023/12/05 00:13:50;;;;;;;28.53;17.13;;;-0.50;99.90;;;;;;5038135;28;20364;-46
2023/12/05 00:16:17;;;;;;;28.10;16.80;;;-0.50;99.90;;;;;;5037411;28;20103;-46
2023/12/05 00:18:46;;;;;;;30.73;17.33;;;-0.60;99.90;;;;;;5054326;28;20458;-46
2023/12/05 00:21:12;;;;;;;26.97;16.17;;;-0.40;99.90;;;;;;5037538;28;20539;-46
2023/12/05 00:23:38;;;;;;;27.53;16.53;;;-0.50;99.90;;;;;;5054817;28;20128;-46
2023/12/05 00:26:04;;;;;;;29.70;17.03;;;-0.60;99.90;;;;;;5054523;28;20040;-46
2023/12/05 00:28:30;;;;;;;31.50;18.17;;;-0.50;99.90;;;;;;5054443;28;20048;-46
2023/12/05 00:30:56;;;;;;;29.40;17.27;;;-0.60;99.90;;;;;;5055271;28;20461;-46
2023/12/05 00:33:21;;;;;;;29.50;17.67;;;-0.40;99.90;;;;;;5054912;28;20060;-46
2023/12/05 00:35:47;;;;;;;28.10;17.27;;;-0.60;99.90;;;;;;5036292;28;20049;-46
2023/12/05 00:38:13;;;;;;;30.03;16.23;;;-0.60;99.90;;;;;;5054295;28;20128;-46
2023/12/05 00:40:39;;;;;;;26.67;15.83;;;-0.50;99.90;;;;;;5054262;28;20049;-46
2023/12/05 00:43:04;;;;;;;27.37;16.27;;;-0.70;99.90;;;;;;5054227;28;20049;-46
2023/12/05 00:45:30;;;;;;;27.57;15.60;;;-0.70;99.90;;;;;;5054161;28;20045;-45
2023/12/05 00:47:56;;;;;;;25.70;14.97;;;-0.70;99.90;;;;;;5053532;28;20045;-46
2023/12/05 00:50:22;;;;;;;26.13;15.17;;;-0.70;99.90;;;;;;5036917;28;20049;-46
2023/12/05 00:52:48;;;;;;;30.00;15.87;;;-0.70;99.90;;;;;;5054067;28;20049;-45
2023/12/05 00:55:14;;;;;;;31.67;17.93;;;-0.60;99.90;;;;;;5053653;28;20123;-46
2023/12/05 00:57:40;;;;;;;30.90;17.00;;;-0.60;99.90;;;;;;5052532;28;20187;-45
2023/12/05 01:00:10;;;;;;;30.47;17.50;;;-0.70;99.90;;;;;;5054209;28;20052;-45
2023/12/05 01:02:36;;;;;;;25.00;15.77;;;-0.70;99.90;;;;;;5053356;28;20052;-46
2023/12/05 01:05:02;;;;;;;30.67;16.33;;;-0.60;99.90;;;;;;5052756;28;20048;-45
2023/12/05 01:07:28;;;;;;;25.93;16.10;;;-0.70;99.90;;;;;;5052702;28;20059;-45
2023/12/05 01:09:55;;;;;;;30.77;18.80;;;-0.70;99.90;;;;;;5052560;28;20128;-45
2023/12/05 01:12:21;;;;;;;27.90;17.07;;;-0.80;99.90;;;;;;5036386;28;20357;-45
2023/12/05 01:14:47;;;;;;;30.70;18.20;;;-0.70;99.90;;;;;;5036177;28;20044;-45
2023/12/05 01:17:15;;;;;;;28.70;17.00;;;-0.60;99.90;;;;;;5053426;28;20052;-45
2023/12/05 01:19:41;;;;;;;31.33;17.80;;;-0.70;99.90;;;;;;5054195;28;20132;-45
2023/12/05 01:22:07;;;;;;;31.63;19.10;;;-0.70;99.90;;;;;;5053514;28;20128;-45
2023/12/05 01:24:32;;;;;;;29.67;18.00;;;-0.70;99.90;;;;;;5052475;28;20044;-45
2023/12/05 01:26:58;;;;;;;31.63;18.30;;;-0.70;99.90;;;;;;5053136;28;20088;-45
2023/12/05 01:29:24;;;;;;;29.63;17.00;;;-0.70;99.90;;;;;;5053661;28;20049;-45
2023/12/05 01:31:50;;;;;;;32.90;19.23;;;-0.70;99.90;;;;;;5053205;28;20049;-45
2023/12/05 01:34:16;;;;;;;35.20;19.57;;;-0.60;99.90;;;;;;5053430;28;20056;-45
2023/12/05 01:36:42;;;;;;;32.17;19.40;;;-0.10;99.90;;;;;;5052368;28;20106;-45
2023/12/05 01:39:12;;;;;;;33.37;18.20;;;-0.70;99.90;;;;;;5054261;28;20097;-45
2023/12/05 01:41:38;;;;;;;33.70;18.77;;;-0.70;99.90;;;;;;5053431;28;20061;-45
2023/12/05 01:44:04;;;;;;;32.33;18.60;;;-0.70;99.90;;;;;;5052853;28;20490;-45
2023/12/05 01:46:30;;;;;;;30.50;18.30;;;-0.70;99.90;;;;;;5052958;28;20368;-45
2023/12/05 01:48:57;;;;;;;33.10;19.63;;;-0.60;99.90;;;;;;5054010;28;20051;-45
2023/12/05 01:51:23;;;;;;;30.42;18.27;;;-0.60;99.90;;;;;;5053984;28;20095;-45
2023/12/05 01:53:50;;;;;;;31.60;18.57;;;-0.60;99.90;;;;;;5053906;28;20048;-45
2023/12/05 01:56:18;;;;;;;32.85;19.05;;;-0.20;99.90;;;;;;5053231;28;20056;-45
2023/12/05 01:58:44;;;;;;;31.90;19.07;;;0.10;99.90;;;;;;5052155;28;20506;-45
2023/12/05 02:01:12;;;;;;;32.87;20.33;;;-0.80;99.90;;;;;;5052354;28;20049;-45
2023/12/05 02:03:39;;;;;;;29.07;18.83;;;-0.70;99.90;;;;;;5053097;28;20515;-44
2023/12/05 02:06:06;;;;;;;34.40;18.98;;;-0.70;99.90;;;;;;5052090;28;20048;-44
2023/12/05 02:08:33;;;;;;;32.80;19.60;;;-0.70;99.90;;;;;;5053236;28;20114;-44
2023/12/05 02:10:59;;;;;;;31.93;19.37;;;-0.70;99.90;;;;;;5053167;28;20052;-44
2023/12/05 02:13:25;;;;;;;34.37;19.03;;;-0.60;99.90;;;;;;5052836;28;20045;-44
2023/12/05 02:16:03;;;;;;;30.23;18.33;;;-0.60;99.90;;;;;;5053022;28;20041;-44
2023/12/05 02:18:36;;;;;;;30.53;17.77;;;-0.50;99.90;;;;;;5053098;28;20048;-44
2023/12/05 02:21:27;;;;;;;31.02;17.63;;;-0.70;99.90;;;;;;5053051;28;20045;-44
2023/12/05 02:24:10;;;;;;;29.90;17.97;;;-0.70;99.90;;;;;;5053377;28;20045;-43
2023/12/05 02:27:10;;;;;;;34.92;19.90;;;-0.70;99.90;;;;;;5053097;28;20053;-44
2023/12/05 02:29:51;;;;;;;29.67;17.97;;;-0.60;99.90;;;;;;5052816;28;20060;-44
2023/12/05 02:32:17;;;;;;;34.97;19.37;;;-0.70;99.90;;;;;;5051840;28;20515;-43
2023/12/05 02:34:44;;;;;;;34.47;20.20;;;-0.60;99.90;;;;;;5052840;28;20049;-43
2023/12/05 02:37:28;;;;;;;34.83;19.93;;;-0.70;99.90;;;;;;5051933;28;20056;-43
2023/12/05 02:40:12;;;;;;;30.30;17.63;;;-0.60;99.90;;;;;;5054335;28;20479;-43
2023/12/05 02:42:39;;;;;;;34.00;19.97;;;-0.70;99.90;;;;;;5056536;28;20045;-43
2023/12/05 02:45:16;;;;;;;32.43;18.93;;;-0.80;99.90;;;;;;5056460;28;20150;-43
2023/12/05 02:47:44;;;;;;;33.37;19.97;;;-0.80;99.90;;;;;;5039370;28;20056;-43
2023/12/05 02:50:10;;;;;;;32.80;19.83;;;-0.70;99.90;;;;;;5056341;28;20045;-43
2023/12/05 02:52:35;;;;;;;31.60;19.27;;;-0.60;99.90;;;;;;5056316;28;20052;-43
2023/12/05 02:55:01;;;;;;;34.97;20.10;;;-0.70;99.90;;;;;;5056162;28;20044;-43
2023/12/05 02:57:27;;;;;;;33.13;19.77;;;-0.70;99.90;;;;;;5056203;28;20114;-43
2023/12/05 02:59:53;;;;;;;32.43;19.17;;;-0.70;99.90;;;;;;5056164;28;20048;-43
2023/12/05 03:02:18;;;;;;;36.07;21.33;;;-0.70;99.90;;;;;;5056118;28;20128;-41
2023/12/05 03:04:44;;;;;;;32.67;19.63;;;-0.80;99.90;;;;;;5056064;28;20041;-43
2023/12/05 03:07:10;;;;;;;34.03;20.77;;;-0.70;99.90;;;;;;5039064;28;20037;-42
2023/12/05 03:09:37;;;;;;;37.40;21.80;;;-0.70;99.90;;;;;;5054806;28;20500;-42
2023/12/05 03:12:03;;;;;;;37.30;22.00;;;-0.70;99.90;;;;;;5055930;28;20045;-42
2023/12/05 03:14:29;;;;;;;35.70;21.27;;;-0.70;99.90;;;;;;5038278;28;20045;-42
2023/12/05 03:16:55;;;;;;;37.17;21.53;;;-0.70;99.90;;;;;;5055862;28;20041;-42
2023/12/05 03:19:20;;;;;;;37.20;22.13;;;-0.80;99.90;;;;;;5055843;28;20080;-42
2023/12/05 03:21:46;;;;;;;37.57;22.20;;;-0.70;99.90;;;;;;5054530;28;20124;-43
2023/12/05 03:24:12;;;;;;;42.90;22.43;;;-0.80;99.90;;;;;;5054549;28;20547;-42
2023/12/05 03:26:38;;;;;;;38.50;21.53;;;-0.80;99.90;;;;;;5055513;28;20048;-42
2023/12/05 03:29:03;;;;;;;40.50;23.57;;;-0.60;99.90;;;;;;5055369;28;20049;-42
2023/12/05 03:31:37;;;;;;;41.07;24.17;;;-0.70;99.90;;;;;;5056420;28;20045;-42
2023/12/05 03:34:03;;;;;;;42.27;23.93;;;-0.80;99.90;;;;;;5037831;28;20529;-42
2023/12/05 03:36:29;;;;;;;44.27;25.40;;;-0.50;99.90;;;;;;5055465;28;20052;-42
2023/12/05 03:38:55;;;;;;;40.70;22.77;;;-0.70;99.90;;;;;;5054213;28;20045;-41
2023/12/05 03:41:22;;;;;;;43.73;24.40;;;-0.90;99.90;;;;;;5037861;28;20033;-42
2023/12/05 03:43:47;;;;;;;40.70;23.20;;;-0.70;99.90;;;;;;5055245;28;20072;-41
2023/12/05 03:46:14;;;;;;;44.83;25.03;;;-0.80;99.90;;;;;;5037846;28;20390;-42
2023/12/05 03:48:40;;;;;;;47.90;26.17;;;-0.80;99.90;;;;;;5054250;28;20083;-42
2023/12/05 03:51:06;;;;;;;49.07;24.43;;;-0.90;99.90;;;;;;5054885;28;20076;-41
2023/12/05 03:53:32;;;;;;;45.87;26.73;;;-0.70;99.90;;;;;;5055014;28;20102;-42
2023/12/05 03:55:58;;;;;;;45.43;26.60;;;-0.70;99.90;;;;;;5038154;28;20048;-43
2023/12/05 03:58:24;;;;;;;44.17;26.10;;;-0.80;99.90;;;;;;5054749;28;20506;-42
2023/12/05 04:00:50;;;;;;;45.93;26.03;;;-0.70;99.90;;;;;;5054617;28;20060;-41
2023/12/05 04:03:15;;;;;;;45.00;25.23;;;-0.70;99.90;;;;;;5054049;28;20045;-42
2023/12/05 04:05:41;;;;;;;47.87;25.53;;;-0.90;99.90;;;;;;5053968;28;20057;-40
2023/12/05 04:08:07;;;;;;;48.10;27.20;;;-0.70;99.90;;;;;;5055161;28;20053;-42
2023/12/05 04:10:33;;;;;;;52.03;28.30;;;-0.70;99.90;;;;;;5036951;28;20179;-43
2023/12/05 04:12:59;;;;;;;49.67;26.60;;;-0.60;99.90;;;;;;5054838;28;20044;-42
2023/12/05 04:15:25;;;;;;;50.37;27.07;;;-0.30;99.90;;;;;;5054687;28;20071;-42
2023/12/05 04:17:50;;;;;;;46.03;25.97;;;-0.80;99.90;;;;;;5053537;28;20049;-42
2023/12/05 04:20:17;;;;;;;48.27;26.43;;;-0.90;99.90;;;;;;5054004;28;20052;-42
2023/12/05 04:22:43;;;;;;;49.67;26.60;;;-0.70;99.90;;;;;;5053642;28;20045;-42
2023/12/05 04:25:11;;;;;;;51.33;27.57;;;-0.90;99.90;;;;;;5053410;28;20037;-42
2023/12/05 04:27:36;;;;;;;46.33;25.73;;;-0.90;99.90;;;;;;5053537;28;20491;-42
2023/12/05 04:30:04;;;;;;;50.03;27.47;;;-0.90;99.90;;;;;;5053308;28;20055;-42
2023/12/05 04:32:30;;;;;;;52.43;26.83;;;-0.70;99.90;;;;;;5053701;28;20398;-42
2023/12/05 04:34:55;;;;;;;50.83;27.70;;;-0.70;99.90;;;;;;5053007;28;20047;-42
2023/12/05 04:37:21;;;;;;;56.50;28.57;;;-0.90;99.90;;;;;;5053343;28;20045;-42
2023/12/05 04:39:47;;;;;;;49.20;25.50;;;-0.90;99.90;;;;;;5053287;28;20052;-43
2023/12/05 04:42:13;;;;;;;49.23;27.60;;;-0.70;99.90;;;;;;5054022;28;20048;-42
2023/12/05 04:44:38;;;;;;;51.77;27.00;;;-0.80;99.90;;;;;;5054066;28;20115;-42
2023/12/05 04:47:04;;;;;;;57.67;28.03;;;-0.90;99.90;;;;;;5053834;28;20499;-42
2023/12/05 04:49:30;;;;;;;56.77;29.67;;;-0.70;99.90;;;;;;5052965;28;20044;-43
2023/12/05 04:51:56;;;;;;;58.70;29.07;;;-0.80;99.90;;;;;;5054360;28;20062;-43
2023/12/05 04:54:22;;;;;;;50.13;27.13;;;-0.90;99.90;;;;;;5052830;28;20391;-43
2023/12/05 04:56:48;;;;;;;52.72;27.65;;;-0.70;99.90;;;;;;5054605;28;20560;-43
2023/12/05 04:59:14;;;;;;;56.07;28.20;;;-0.70;99.90;;;;;;5054070;28;20214;-43
2023/12/05 05:01:40;;;;;;;54.03;28.23;;;-0.90;99.90;;;;;;5052007;28;20478;-42
2023/12/05 05:04:05;;;;;;;52.70;28.60;;;-0.90;99.90;;;;;;5036099;28;20052;-42
2023/12/05 05:06:31;;;;;;;55.00;28.92;;;-0.70;99.90;;;;;;5053542;28;20041;-43
2023/12/05 05:08:57;;;;;;;58.43;28.63;;;-0.60;99.90;;;;;;5053228;28;20084;-43
2023/12/05 05:11:23;;;;;;;56.03;27.33;;;-0.70;99.90;;;;;;5052560;28;20502;-43
2023/12/05 05:13:49;;;;;;;50.00;26.00;;;-0.90;99.90;;;;;;5054029;28;20048;-43
2023/12/05 05:16:15;;;;;;;57.10;28.00;;;-0.90;99.90;;;;;;5053670;28;20052;-43
2023/12/05 05:18:40;;;;;;;52.37;27.77;;;-0.80;99.90;;;;;;5053716;28;20052;-43
2023/12/05 05:21:07;;;;;;;53.17;28.13;;;-0.70;99.90;;;;;;5053581;28;20045;-40
2023/12/05 05:23:33;;;;;;;53.57;27.83;;;-0.70;99.90;;;;;;5054150;28;20052;-40
2023/12/05 05:25:59;;;;;;;57.53;28.43;;;-0.70;99.90;;;;;;5053255;28;20036;-41
2023/12/05 05:28:25;;;;;;;59.13;28.67;;;-0.60;99.90;;;;;;5054064;28;20135;-40
2023/12/05 05:30:54;;;;;;;56.20;28.57;;;-0.60;99.90;;;;;;5053316;28;20092;-40
2023/12/05 05:33:21;;;;;;;56.63;27.57;;;-0.80;99.90;;;;;;5053560;28;20132;-40
2023/12/05 05:35:47;;;;;;;53.20;27.63;;;-0.80;99.90;;;;;;5053481;28;20068;-40
2023/12/05 05:38:13;;;;;;;51.87;27.13;;;-0.70;99.90;;;;;;5053815;28;20045;-40
2023/12/05 05:40:40;;;;;;;54.50;27.93;;;-0.60;99.90;;;;;;5053551;28;20397;-40
2023/12/05 05:43:06;;;;;;;47.47;23.97;;;-0.60;99.90;;;;;;5053474;28;20051;-40
2023/12/05 05:45:32;;;;;;;56.70;28.27;;;-0.60;99.90;;;;;;5053424;28;20094;-40
2023/12/05 05:47:58;;;;;;;50.40;27.40;;;-0.90;99.90;;;;;;5053436;28;20049;-40
2023/12/05 05:50:23;;;;;;;48.10;27.17;;;-0.60;99.90;;;;;;5053386;28;20532;-41
2023/12/05 05:52:49;;;;;;;53.20;27.57;;;-0.60;99.90;;;;;;5052999;28;20057;-40
2023/12/05 05:55:15;;;;;;;52.77;26.87;;;-0.80;99.90;;;;;;5053303;28;20045;-41
2023/12/05 05:57:41;;;;;;;50.67;27.47;;;-0.80;99.90;;;;;;5052713;28;20045;-41
2023/12/05 06:00:08;;;;;;;51.80;26.10;;;-0.60;99.90;;;;;;5053250;28;20128;-41
2023/12/05 06:02:34;;;;;;;45.47;25.43;;;-0.80;99.90;;;;;;5052059;28;20445;-40
2023/12/05 06:04:59;;;;;;;47.93;26.67;;;-0.20;99.90;;;;;;5052564;28;20057;-41
2023/12/05 06:07:25;;;;;;;50.17;26.37;;;-0.80;99.90;;;;;;5052008;28;20048;-41
2023/12/05 06:09:54;;;;;;;50.30;26.27;;;-0.60;99.90;;;;;;5052062;28;20045;-40
2023/12/05 06:12:21;;;;;;;51.43;26.60;;;-0.70;99.90;;;;;;5053715;28;20449;-40
2023/12/05 06:14:46;;;;;;;53.00;27.47;;;-0.40;99.90;;;;;;5056933;28;20045;-40
2023/12/05 06:17:12;;;;;;;50.20;26.37;;;-0.60;99.90;;;;;;5057574;28;20136;-40
2023/12/05 06:19:38;;;;;;;47.67;26.07;;;-0.60;99.90;;;;;;5056254;28;20056;-39
2023/12/05 06:22:04;;;;;;;50.60;26.53;;;-0.80;99.90;;;;;;5055745;28;20052;-40
2023/12/05 06:24:30;;;;;;;45.90;26.47;;;-0.70;99.90;;;;;;5039274;28;20041;-40
2023/12/05 06:26:55;;;;;;;44.87;26.60;;;-0.30;99.90;;;;;;5057660;28;20118;-38
2023/12/05 06:29:21;;;;;;;41.67;24.77;;;-0.70;99.90;;;;;;5056624;28;20121;-39
2023/12/05 06:31:47;;;;;;;48.00;25.87;;;-0.70;99.90;;;;;;5057348;28;20060;-39
2023/12/05 06:34:13;;;;;;;44.37;23.90;;;-0.70;99.90;;;;;;5056927;28;20056;-40
2023/12/05 06:36:39;;;;;;;53.37;27.07;;;-0.70;99.90;;;;;;5056632;28;20176;-37
2023/12/05 06:39:08;;;;;;;43.07;24.27;;;-0.80;99.90;;;;;;5055422;28;20115;-37
2023/12/05 06:41:35;;;;;;;47.73;25.53;;;-0.70;99.90;;;;;;5056770;28;20056;-40
2023/12/05 06:44:02;;;;;;;41.30;22.97;;;-0.60;99.90;;;;;;5006386;28;20487;-39
2023/12/05 06:46:28;;;;;;;44.93;23.50;;;-0.90;99.90;;;;;;5055489;28;20514;-37
2023/12/05 06:48:53;;;;;;;44.60;24.00;;;-0.60;99.90;;;;;;5056394;28;20045;-38
2023/12/05 06:51:19;;;;;;;47.00;25.43;;;-0.80;99.90;;;;;;5056359;28;20157;-33
2023/12/05 06:53:48;;;;;;;44.23;22.73;;;-0.70;99.90;;;;;;5056346;28;20048;-33
2023/12/05 06:56:15;;;;;;;48.60;25.17;;;-0.60;99.90;;;;;;5056204;28;20080;-33
2023/12/05 06:58:41;;;;;;;48.83;25.90;;;-0.70;99.90;;;;;;5056239;28;20095;-33
2023/12/05 07:01:08;;;;;;;48.17;25.87;;;-0.30;99.90;;;;;;5056458;28;20131;-36
2023/12/05 07:03:34;;;;;;;49.63;24.97;;;-0.70;99.90;;;;;;5056137;28;20118;-33
2023/12/05 07:05:59;;;;;;;41.63;22.27;;;-0.90;99.90;;;;;;5055166;28;20471;-36
2023/12/05 07:08:26;;;;;;;49.43;24.40;;;-0.70;99.90;;;;;;5056610;28;20385;-36
2023/12/05 07:10:52;;;;;;;48.60;23.07;;;-0.60;99.90;;;;;;5055355;28;20086;-34
2023/12/05 07:13:18;;;;;;;51.07;26.10;;;-0.80;99.90;;;;;;5055943;28;20051;-34
2023/12/05 07:15:44;;;;;;;51.30;24.80;;;-0.70;99.90;;;;;;5055832;28;20037;-37
2023/12/05 07:18:10;;;;;;;50.63;27.27;;;-0.80;99.90;;;;;;5054918;28;20041;-36
2023/12/05 07:20:36;;;;;;;52.83;26.03;;;-0.90;99.90;;;;;;5055999;28;20049;-33
2023/12/05 07:23:02;;;;;;;51.43;25.63;;;-0.90;99.90;;;;;;5056410;28;20495;-34
2023/12/05 07:25:28;;;;;;;48.43;25.17;;;-0.80;99.90;;;;;;5054808;28;20057;-36
2023/12/05 07:27:55;;;;;;;48.97;27.43;;;-0.70;99.90;;;;;;5055587;28;20141;-33
2023/12/05 07:30:20;;;;;;;42.70;23.33;;;-0.70;99.90;;;;;;5055987;28;20061;-33
2023/12/05 07:32:46;;;;;;;46.70;24.97;;;-0.90;99.90;;;;;;5054651;28;20501;-33
2023/12/05 07:35:12;;;;;;;48.53;24.77;;;-0.70;99.90;;;;;;5055501;28;20048;-33
2023/12/05 07:37:38;;;;;;;51.53;25.73;;;-0.70;99.90;;;;;;5054569;28;20049;-34
2023/12/05 07:40:06;;;;;;;49.20;25.50;;;-0.70;99.90;;;;;;5055171;28;20545;-33
2023/12/05 07:42:32;;;;;;;50.60;23.73;;;-0.80;99.90;;;;;;5055460;28;20529;-33
2023/12/05 07:44:58;;;;;;;53.10;26.13;;;-0.80;99.90;;;;;;5056187;28;20604;-35
2023/12/05 07:47:24;;;;;;;45.57;23.90;;;-0.70;99.90;;;;;;5054326;28;20486;-34
2023/12/05 07:49:50;;;;;;;51.40;25.60;;;-0.20;99.90;;;;;;5055335;28;20048;-34
2023/12/05 07:52:16;;;;;;;45.20;24.00;;;-0.80;99.90;;;;;;5055456;28;20103;-33
2023/12/05 07:54:42;;;;;;;46.73;24.30;;;-0.80;99.90;;;;;;5055390;28;20414;-34
2023/12/05 07:57:08;;;;;;;45.93;24.47;;;-0.70;99.90;;;;;;5055114;28;20445;-33
2023/12/05 07:59:33;;;;;;;43.93;24.30;;;-0.60;99.90;;;;;;5054125;28;20100;-36
2023/12/05 08:01:59;;;;;;;42.83;25.23;;;-0.50;99.90;;;;;;5055047;28;20391;-37
2023/12/05 08:04:25;;;;;;;54.57;26.37;;;-0.40;99.90;;;;;;5055804;28;20087;-37
2023/12/05 08:06:51;;;;;;;44.23;23.77;;;-0.40;99.90;;;;;;5054993;28;20501;-37
2023/12/05 08:09:16;;;;;;;46.33;23.47;;;-0.10;99.90;;;;;;5054611;28;20041;-38
2023/12/05 08:11:42;;;;;;;42.13;23.77;;;-0.30;99.90;;;;;;5054904;28;20051;-37
2023/12/05 08:14:08;;;;;;;43.13;23.73;;;-0.60;99.90;;;;;;5054771;28;20053;-39
2023/12/05 08:16:34;;;;;;;40.83;24.00;;;-0.40;99.90;;;;;;5055480;28;20041;-39
2023/12/05 08:19:00;;;;;;;42.47;23.60;;;-0.20;99.90;;;;;;5054728;28;20479;-40
2023/12/05 08:21:25;;;;;;;40.63;22.27;;;-0.10;99.90;;;;;;5054631;28;20049;-40
2023/12/05 08:23:52;;;;;;;40.03;23.50;;;0.00;99.90;;;;;;5054642;28;20052;-40
2023/12/05 08:26:17;;;;;;;40.47;22.17;;;-0.10;99.90;;;;;;5054548;28;20106;-40
2023/12/05 08:28:43;;;;;;;43.10;23.30;;;-0.10;99.90;;;;;;5053594;28;20048;-41
2023/12/05 08:31:09;;;;;;;35.20;20.90;;;-0.10;99.90;;;;;;5054298;28;20139;-41
2023/12/05 08:33:34;;;;;;;34.73;20.10;;;-0.10;99.90;;;;;;5054441;28;20127;-41
2023/12/05 08:36:01;;;;;;;34.40;21.07;;;-0.20;99.90;;;;;;5054319;28;20049;-40
2023/12/05 08:38:27;;;;;;;34.17;21.70;;;-0.40;99.90;;;;;;5054372;28;20053;-41
2023/12/05 08:40:52;;;;;;;36.80;20.90;;;-0.20;99.90;;;;;;5053062;28;20057;-41
2023/12/05 08:43:18;;;;;;;35.90;21.20;;;-0.20;99.90;;;;;;5054208;28;20190;-41
2023/12/05 08:45:44;;;;;;;35.87;22.33;;;0.30;99.90;;;;;;5053269;28;20052;-41
2023/12/05 08:48:10;;;;;;;29.37;16.83;;;0.30;99.90;;;;;;5054454;28;20049;-41
2023/12/05 08:50:36;;;;;;;30.33;19.27;;;0.00;99.90;;;;;;5054121;28;20045;-41
2023/12/05 08:53:02;;;;;;;34.33;21.70;;;0.00;99.90;;;;;;5054075;28;20494;-40
2023/12/05 08:55:28;;;;;;;33.10;19.90;;;-0.20;99.90;;;;;;5054491;28;20045;-39
2023/12/05 08:57:55;;;;;;;32.30;19.23;;;-0.20;99.90;;;;;;5054043;28;20056;-39
2023/12/05 09:00:21;;;;;;;32.00;19.70;;;-0.20;99.90;;;;;;5053564;28;20052;-40
2023/12/05 09:02:47;;;;;;;29.30;19.13;;;-0.20;99.90;;;;;;5053946;28;20049;-40
2023/12/05 09:05:12;;;;;;;31.93;21.07;;;0.40;99.90;;;;;;5054187;28;20080;-40
2023/12/05 09:07:39;;;;;;;36.93;20.97;;;-0.10;99.90;;;;;;5053556;28;20053;-40
2023/12/05 09:10:05;;;;;;;33.57;20.30;;;0.10;99.90;;;;;;5054556;28;20052;-40
2023/12/05 09:12:32;;;;;;;30.00;19.33;;;0.00;99.90;;;;;;5054060;28;20041;-41
2023/12/05 09:14:58;;;;;;;30.37;20.30;;;0.00;99.90;;;;;;5053692;28;20048;-41
2023/12/05 09:17:24;;;;;;;31.97;20.50;;;0.00;99.90;;;;;;5036162;28;20049;-41
2023/12/05 09:19:53;;;;;;;28.60;18.10;;;-0.10;99.90;;;;;;5052699;28;20041;-41
2023/12/05 09:22:19;;;;;;;32.63;20.17;;;0.00;99.90;;;;;;5053628;28;20048;-41
2023/12/05 09:24:47;;;;;;;32.13;20.20;;;0.00;99.90;;;;;;5053691;28;20049;-41
2023/12/05 09:27:12;;;;;;;29.27;19.08;;;-0.20;99.90;;;;;;5053605;28;20080;-41
2023/12/05 09:29:38;;;;;;;28.37;17.90;;;-0.10;99.90;;;;;;5035657;28;20095;-41
2023/12/05 09:32:05;;;;;;;33.63;20.33;;;-0.10;99.90;;;;;;5053228;28;20045;-41
2023/12/05 09:34:31;;;;;;;28.77;18.93;;;-0.20;99.90;;;;;;5052824;28;20053;-40
2023/12/05 09:36:57;;;;;;;28.53;18.73;;;-0.10;99.90;;;;;;5035977;28;20052;-40
2023/12/05 09:39:23;;;;;;;35.87;19.63;;;-0.10;99.90;;;;;;5053708;28;20544;-41
2023/12/05 09:41:52;;;;;;;29.07;18.90;;;0.00;99.90;;;;;;5054263;28;20048;-41
2023/12/05 09:44:21;;;;;;;29.65;19.42;;;0.20;99.90;;;;;;5053430;28;20056;-41
2023/12/05 09:46:52;;;;;;;30.98;19.63;;;0.40;99.90;;;;;;5053479;28;20048;-41
2023/12/05 09:49:21;;;;;;;31.23;19.97;;;0.80;99.90;;;;;;5057658;28;20045;-41
2023/12/05 09:51:47;;;;;;;28.77;19.13;;;0.80;99.90;;;;;;5057526;28;20410;-41
2023/12/05 09:54:14;;;;;;;26.65;18.17;;;0.60;99.90;;;;;;5057468;28;20060;-42
2023/12/05 09:56:41;;;;;;;27.45;18.10;;;0.70;99.90;;;;;;5057336;28;20086;-41
2023/12/05 09:59:08;;;;;;;29.20;17.85;;;0.80;99.90;;;;;;5056418;28;20053;-41
2023/12/05 10:01:35;;;;;;;29.00;18.53;;;0.70;99.90;;;;;;5057643;28;20495;-41
2023/12/05 10:04:02;;;;;;;30.92;18.65;;;0.80;99.90;;;;;;5057291;28;20049;-41
2023/12/05 10:06:29;;;;;;;28.20;18.20;;;0.80;99.90;;;;;;5057239;28;20122;-40
2023/12/05 10:08:56;;;;;;;26.20;16.98;;;0.80;99.90;;;;;;5057482;28;20119;-41
2023/12/05 10:11:24;;;;;;;27.77;17.77;;;0.80;99.90;;;;;;5057123;28;20052;-41
2023/12/05 10:13:50;;;;;;;27.63;17.38;;;0.80;99.90;;;;;;5057122;28;20483;-41
2023/12/05 10:16:17;;;;;;;26.77;17.17;;;0.90;99.90;;;;;;5057018;28;20041;-42
2023/12/05 10:18:46;;;;;;;29.23;17.45;;;0.80;99.90;;;;;;5056875;28;20079;-42
2023/12/05 10:21:12;;;;;;;26.60;18.08;;;1.00;99.90;;;;;;5057419;28;20048;-42
2023/12/05 10:23:38;;;;;;;25.70;16.23;;;0.80;99.90;;;;;;5057790;28;20156;-41
2023/12/05 10:26:04;;;;;;;29.20;18.95;;;0.70;99.90;;;;;;5056887;28;20530;-41
2023/12/05 10:28:30;;;;;;;30.13;19.30;;;0.70;99.90;;;;;;5055879;28;20087;-42
2023/12/05 10:30:57;;;;;;;27.08;18.00;;;0.70;99.90;;;;;;5057105;28;20063;-41
2023/12/05 10:33:23;;;;;;;29.45;18.95;;;0.60;99.90;;;;;;5055773;28;20133;-41
2023/12/05 10:35:49;;;;;;;30.50;18.83;;;0.90;99.90;;;;;;5056586;28;20124;-42
2023/12/05 10:38:19;;;;;;;29.92;18.85;;;0.50;99.90;;;;;;5056742;28;20053;-43
2023/12/05 10:40:56;;;;;;;27.55;17.38;;;0.50;99.90;;;;;;5056665;28;20048;-42
2023/12/05 10:43:24;;;;;;;29.65;19.55;;;0.50;99.90;;;;;;5055588;28;20045;-42
2023/12/05 10:45:50;;;;;;;27.42;18.60;;;0.80;99.90;;;;;;5056476;28;20506;-41
2023/12/05 10:48:17;;;;;;;30.20;18.88;;;0.50;99.90;;;;;;5057317;28;20356;-41
2023/12/05 10:50:48;;;;;;;25.20;15.95;;;0.40;99.90;;;;;;5056482;28;20045;-41
2023/12/05 10:53:14;;;;;;;32.20;20.35;;;0.40;99.90;;;;;;5056388;28;20484;-41
2023/12/05 10:55:41;;;;;;;30.13;19.27;;;0.40;99.90;;;;;;5055172;28;20503;-41
2023/12/05 10:58:09;;;;;;;28.42;18.77;;;0.50;99.90;;;;;;5056221;28;20084;-38
2023/12/05 11:00:36;;;;;;;31.58;20.23;;;0.40;99.90;;;;;;5036898;28;20045;-35
2023/12/05 11:03:03;;;;;;;30.55;19.15;;;0.40;99.90;;;;;;5056174;28;20123;-33
2023/12/05 11:05:31;;;;;;;28.20;19.10;;;0.50;99.90;;;;;;5056124;28;20091;-32
2023/12/05 11:07:57;;;;;;;31.90;20.40;;;0.40;99.90;;;;;;5054852;28;20057;-32
2023/12/05 11:10:27;;;;;;;29.92;19.15;;;0.40;99.90;;;;;;5054885;28;20051;-31
2023/12/05 11:12:54;;;;;;;31.05;20.40;;;0.30;99.90;;;;;;5056026;28;20045;-31
2023/12/05 11:15:35;;;;;;;31.85;18.83;;;0.30;99.90;;;;;;5055874;28;20044;-29
2023/12/05 11:18:34;;;;;;;31.13;19.25;;;0.30;99.90;;;;;;5056005;28;20079;-28
2023/12/05 11:21:15;;;;;;;33.42;20.27;;;0.30;99.90;;;;;;5056596;28;20356;-29
2023/12/05 11:24:28;;;;;;;29.35;18.77;;;0.30;99.90;;;;;;5056107;28;20049;-28
2023/12/05 11:27:19;;;;;;;34.80;21.23;;;0.20;99.90;;;;;;5054659;28;20049;-28
2023/12/05 11:30:23;;;;;;;33.05;20.92;;;0.30;99.90;;;;;;5055844;28;20140;-28
2023/12/05 11:33:12;;;;;;;33.63;20.70;;;0.30;99.90;;;;;;5055651;28;20552;-28
2023/12/05 11:35:58;;;;;;;33.28;21.40;;;0.30;99.90;;;;;;5056156;28;20053;-29
2023/12/05 11:38:25;;;;;;;35.33;21.42;;;0.30;99.90;;;;;;5053969;28;20057;-28
2023/12/05 11:41:20;;;;;;;33.00;20.42;;;0.30;99.90;;;;;;5037980;28;20045;-28
2023/12/05 11:44:11;;;;;;;31.60;19.85;;;0.40;99.90;;;;;;5054797;28;20067;-28
2023/12/05 11:46:37;;;;;;;32.00;19.08;;;0.50;99.90;;;;;;5054143;28;20049;-28
2023/12/05 11:49:03;;;;;;;32.95;21.50;;;0.30;99.90;;;;;;5055284;28;20498;-28
2023/12/05 11:51:33;;;;;;;31.23;20.10;;;0.40;99.90;;;;;;5054307;28;20049;-28
2023/12/05 11:54:02;;;;;;;34.03;20.02;;;0.20;99.90;;;;;;5055225;28;20063;-29
2023/12/05 11:56:30;;;;;;;32.28;20.60;;;0.30;99.90;;;;;;5055111;28;20049;-29
2023/12/05 11:59:13;;;;;;;33.05;20.60;;;0.30;99.90;;;;;;5054165;28;20041;-29
2023/12/05 12:01:43;;;;;;;39.42;23.15;;;0.30;99.90;;;;;;5055101;28;20453;-30
2023/12/05 12:04:20;;;;;;;37.13;21.63;;;0.20;99.90;;;;;;5038033;28;20390;-30
2023/12/05 12:06:47;;;;;;;39.28;22.63;;;0.10;99.90;;;;;;5038331;28;20128;-29
2023/12/05 12:09:13;;;;;;;42.47;25.05;;;0.10;99.90;;;;;;5054987;28;20051;-30
2023/12/05 12:11:39;;;;;;;50.47;25.43;;;-0.10;99.90;;;;;;5053630;28;20088;-30
2023/12/05 12:14:16;;;;;;;37.90;23.38;;;0.10;99.90;;;;;;5053907;28;20052;-31
2023/12/05 12:16:43;;;;;;;41.53;23.50;;;0.00;99.90;;;;;;5054390;28;20045;-31
2023/12/05 12:19:11;;;;;;;45.05;25.52;;;0.00;99.90;;;;;;5054720;28;20131;-33
2023/12/05 12:21:40;;;;;;;44.65;24.70;;;0.30;99.90;;;;;;5054631;28;20056;-33
2023/12/05 12:24:08;;;;;;;47.33;27.15;;;-0.20;99.90;;;;;;5055207;28;20045;-38
2023/12/05 12:26:34;;;;;;;46.57;25.57;;;-0.10;99.90;;;;;;5053432;28;20045;-41
2023/12/05 12:29:09;;;;;;;43.67;24.03;;;-0.10;99.90;;;;;;5052809;28;20048;-41
2023/12/05 12:31:36;;;;;;;45.05;27.25;;;0.00;99.90;;;;;;5055139;28;20175;-41
2023/12/05 12:34:08;;;;;;;43.87;25.87;;;0.00;99.90;;;;;;5053499;28;20560;-42